sensor_id;sensor_type;location;lat;lon;timestamp;pressure;altitude;pressure_sealevel;temperature;humidity
35224;BME280;21367;51.930;8.112;2023-09-08T00:04:05;101222.28;;;18.54;92.93
35224;BME280;21367;51.930;8.112;2023-09-08T00:09:09;101221.31;;;18.48;92.94
35224;BME280;21367;51.930;8.112;2023-09-08T00:14:13;101220.44;;;18.46;93.00
35224;BME280;21367;51.930;8.112;2023-09-08T00:19:19;101213.53;;;18.50;92.71
35224;BME280;21367;51.930;8.112;2023-09-08T00:24:23;101216.78;;;18.38;93.00
35224;BME280;21367;51.930;8.112;2023-09-08T00:29:27;101220.09;;;18.28;94.23
35224;BME280;21367;51.930;8.112;2023-09-08T00:34:33;101217.44;;;18.25;95.44
35224;BME280;21367;51.930;8.112;2023-09-08T00:39:38;101226.84;;;18.18;96.28
35224;BME280;21367;51.930;8.112;2023-09-08T00:44:41;101223.16;;;18.07;98.02
35224;BME280;21367;51.930;8.112;2023-09-08T00:49:48;101220.47;;;18.02;98.28
35224;BME280;21367;51.930;8.112;2023-09-08T00:54:52;101220.97;;;17.86;98.96
35224;BME280;21367;51.930;8.112;2023-09-08T00:59:55;101212.16;;;17.78;99.34
35224;BME280;21367;51.930;8.112;2023-09-08T01:05:02;101210.25;;;17.71;99.69
35224;BME280;21367;51.930;8.112;2023-09-08T01:10:06;101210.19;;;17.68;100.00
35224;BME280;21367;51.930;8.112;2023-09-08T01:15:11;101211.00;;;17.65;100.00
35224;BME280;21367;51.930;8.112;2023-09-08T01:20:21;101208.41;;;17.65;100.00
35224;BME280;21367;51.930;8.112;2023-09-08T01:25:28;101216.66;;;17.47;100.00
35224;BME280;21367;51.930;8.112;2023-09-08T01:30:32;101216.75;;;17.50;100.00
35224;BME280;21367;51.930;8.112;2023-09-08T01:35:38;101214.81;;;17.42;100.00
35224;BME280;21367;51.930;8.112;2023-09-08T01:40:45;101218.97;;;17.33;100.00
35224;BME280;21367;51.930;8.112;2023-09-08T01:45:48;101213.72;;;17.32;100.00
35224;BME280;21367;51.930;8.112;2023-09-08T01:50:52;101208.38;;;17.26;100.00
35224;BME280;21367;51.930;8.112;2023-09-08T01:55:58;101208.25;;;17.20;100.00
35224;BME280;21367;51.930;8.112;2023-09-08T02:01:02;101201.19;;;17.14;100.00
35224;BME280;21367;51.930;8.112;2023-09-08T02:06:06;101203.75;;;17.13;100.00
35224;BME280;21367;51.930;8.112;2023-09-08T02:11:12;101192.59;;;17.17;100.00
35224;BME280;21367;51.930;8.112;2023-09-08T02:16:16;101191.34;;;17.01;100.00
35224;BME280;21367;51.930;8.112;2023-09-08T02:21:21;101198.34;;;17.02;100.00
35224;BME280;21367;51.930;8.112;2023-09-08T02:26:27;101196.75;;;17.08;100.00
35224;BME280;21367;51.930;8.112;2023-09-08T02:31:34;101189.91;;;17.14;100.00
35224;BME280;21367;51.930;8.112;2023-09-08T02:36:40;101187.78;;;16.96;100.00
35224;BME280;21367;51.930;8.112;2023-09-08T02:41:47;101198.84;;;16.87;100.00
35224;BME280;21367;51.930;8.112;2023-09-08T02:46:51;101190.84;;;16.79;100.00
35224;BME280;21367;51.930;8.112;2023-09-08T02:51:55;101191.75;;;16.80;100.00
35224;BME280;21367;51.930;8.112;2023-09-08T02:57:01;101202.28;;;16.86;100.00
35224;BME280;21367;51.930;8.112;2023-09-08T03:02:05;101201.03;;;16.72;100.00
35224;BME280;21367;51.930;8.112;2023-09-08T03:07:09;101196.88;;;16.77;100.00
35224;BME280;21367;51.930;8.112;2023-09-08T03:12:16;101197.47;;;16.68;100.00
35224;BME280;21367;51.930;8.112;2023-09-08T03:17:19;101192.53;;;16.44;100.00
35224;BME280;21367;51.930;8.112;2023-09-08T03:22:23;101196.06;;;16.48;100.00
35224;BME280;21367;51.930;8.112;2023-09-08T03:27:30;101191.13;;;16.57;100.00
35224;BME280;21367;51.930;8.112;2023-09-08T03:32:33;101191.31;;;16.64;100.00
35224;BME280;21367;51.930;8.112;2023-09-08T03:37:37;101182.31;;;16.50;100.00
35224;BME280;21367;51.930;8.112;2023-09-08T03:42:44;101184.75;;;16.44;100.00
35224;BME280;21367;51.930;8.112;2023-09-08T03:47:47;101182.06;;;16.41;100.00
35224;BME280;21367;51.930;8.112;2023-09-08T03:52:52;101180.41;;;16.43;100.00
35224;BME280;21367;51.930;8.112;2023-09-08T03:58:00;101188.72;;;16.30;100.00
35224;BME280;21367;51.930;8.112;2023-09-08T04:03:04;101189.59;;;16.30;100.00
35224;BME280;21367;51.930;8.112;2023-09-08T04:08:08;101184.22;;;16.24;100.00
35224;BME280;21367;51.930;8.112;2023-09-08T04:13:15;101182.50;;;16.25;100.00
35224;BME280;21367;51.930;8.112;2023-09-08T04:18:19;101184.22;;;16.24;100.00
35224;BME280;21367;51.930;8.112;2023-09-08T04:23:22;101184.19;;;16.23;100.00
35224;BME280;21367;51.930;8.112;2023-09-08T04:28:29;101187.38;;;16.12;100.00
35224;BME280;21367;51.930;8.112;2023-09-08T04:33:32;101192.53;;;16.11;100.00
35224;BME280;21367;51.930;8.112;2023-09-08T04:38:36;101184.59;;;16.05;100.00
35224;BME280;21367;51.930;8.112;2023-09-08T04:43:46;101178.63;;;16.42;100.00
35224;BME280;21367;51.930;8.112;2023-09-08T04:48:50;101180.09;;;16.32;100.00
35224;BME280;21367;51.930;8.112;2023-09-08T04:53:56;101187.44;;;16.15;100.00
35224;BME280;21367;51.930;8.112;2023-09-08T04:59:04;101198.69;;;16.16;100.00
35224;BME280;21367;51.930;8.112;2023-09-08T05:04:08;101200.13;;;16.05;100.00
35224;BME280;21367;51.930;8.112;2023-09-08T05:09:12;101197.91;;;16.18;100.00
35224;BME280;21367;51.930;8.112;2023-09-08T05:14:19;101192.34;;;16.36;100.00
35224;BME280;21367;51.930;8.112;2023-09-08T05:19:26;101187.00;;;16.32;100.00
35224;BME280;21367;51.930;8.112;2023-09-08T05:24:31;101198.91;;;16.57;100.00
35224;BME280;21367;51.930;8.112;2023-09-08T05:29:38;101194.25;;;16.43;100.00
35224;BME280;21367;51.930;8.112;2023-09-08T05:34:42;101194.06;;;16.71;100.00
35224;BME280;21367;51.930;8.112;2023-09-08T05:39:46;101197.09;;;16.86;100.00
35224;BME280;21367;51.930;8.112;2023-09-08T05:44:52;101194.72;;;16.62;100.00
35224;BME280;21367;51.930;8.112;2023-09-08T05:49:57;101190.56;;;16.70;100.00
35224;BME280;21367;51.930;8.112;2023-09-08T05:55:01;101187.91;;;16.67;100.00
35224;BME280;21367;51.930;8.112;2023-09-08T06:00:08;101194.50;;;16.86;100.00
35224;BME280;21367;51.930;8.112;2023-09-08T06:05:20;101192.69;;;16.83;100.00
35224;BME280;21367;51.930;8.112;2023-09-08T06:10:25;101189.97;;;17.15;100.00
35224;BME280;21367;51.930;8.112;2023-09-08T06:15:31;101187.31;;;17.12;100.00
35224;BME280;21367;51.930;8.112;2023-09-08T06:20:35;101188.19;;;17.13;100.00
35224;BME280;21367;51.930;8.112;2023-09-08T06:25:38;101196.03;;;17.16;100.00
35224;BME280;21367;51.930;8.112;2023-09-08T06:30:45;101186.00;;;17.31;100.00
35224;BME280;21367;51.930;8.112;2023-09-08T06:35:49;101190.66;;;17.46;100.00
35224;BME280;21367;51.930;8.112;2023-09-08T06:40:54;101186.72;;;17.65;100.00
35224;BME280;21367;51.930;8.112;2023-09-08T06:46:01;101192.94;;;17.73;100.00
35224;BME280;21367;51.930;8.112;2023-09-08T06:51:05;101188.53;;;17.69;100.00
35224;BME280;21367;51.930;8.112;2023-09-08T06:56:11;101186.38;;;17.89;100.00
35224;BME280;21367;51.930;8.112;2023-09-08T07:01:17;101188.38;;;18.02;100.00
35224;BME280;21367;51.930;8.112;2023-09-08T07:06:21;101185.34;;;18.26;100.00
35224;BME280;21367;51.930;8.112;2023-09-08T07:11:26;101195.38;;;18.53;100.00
35224;BME280;21367;51.930;8.112;2023-09-08T07:16:34;101190.63;;;18.78;100.00
35224;BME280;21367;51.930;8.112;2023-09-08T07:21:38;101191.03;;;19.05;100.00
35224;BME280;21367;51.930;8.112;2023-09-08T07:26:41;101188.59;;;19.17;98.94
35224;BME280;21367;51.930;8.112;2023-09-08T07:31:48;101188.22;;;19.51;98.58
35224;BME280;21367;51.930;8.112;2023-09-08T07:36:52;101193.69;;;19.69;97.24
35224;BME280;21367;51.930;8.112;2023-09-08T07:41:56;101188.72;;;19.89;98.42
35224;BME280;21367;51.930;8.112;2023-09-08T07:47:03;101190.72;;;20.13;95.32
35224;BME280;21367;51.930;8.112;2023-09-08T07:52:06;101186.72;;;20.49;93.41
35224;BME280;21367;51.930;8.112;2023-09-08T07:57:10;101191.28;;;20.71;91.78
35224;BME280;21367;51.930;8.112;2023-09-08T08:02:16;101190.69;;;21.03;91.38
35224;BME280;21367;51.930;8.112;2023-09-08T08:07:19;101190.81;;;21.27;89.36
35224;BME280;21367;51.930;8.112;2023-09-08T08:12:23;101193.56;;;21.49;87.35
35224;BME280;21367;51.930;8.112;2023-09-08T08:17:30;101199.72;;;21.59;86.64
35224;BME280;21367;51.930;8.112;2023-09-08T08:22:33;101201.59;;;21.84;87.09
35224;BME280;21367;51.930;8.112;2023-09-08T08:27:37;101193.03;;;22.28;84.51
35224;BME280;21367;51.930;8.112;2023-09-08T08:32:43;101186.91;;;22.35;82.06
35224;BME280;21367;51.930;8.112;2023-09-08T08:37:47;101186.94;;;22.63;81.22
35224;BME280;21367;51.930;8.112;2023-09-08T08:42:54;101188.66;;;22.93;80.94
35224;BME280;21367;51.930;8.112;2023-09-08T08:48:01;101187.75;;;23.32;79.43
35224;BME280;21367;51.930;8.112;2023-09-08T08:53:06;101196.47;;;23.42;78.47
35224;BME280;21367;51.930;8.112;2023-09-08T08:58:11;101192.00;;;23.72;78.68
35224;BME280;21367;51.930;8.112;2023-09-08T09:03:18;101180.47;;;24.05;79.25
35224;BME280;21367;51.930;8.112;2023-09-08T09:08:23;101172.41;;;24.33;79.23
35224;BME280;21367;51.930;8.112;2023-09-08T09:13:27;101169.53;;;24.69;79.46
35224;BME280;21367;51.930;8.112;2023-09-08T09:18:34;101178.22;;;24.75;77.51
35224;BME280;21367;51.930;8.112;2023-09-08T09:23:37;101184.22;;;24.92;78.26
35224;BME280;21367;51.930;8.112;2023-09-08T09:28:47;101177.06;;;25.05;79.14
35224;BME280;21367;51.930;8.112;2023-09-08T09:34:05;101177.41;;;25.53;77.47
35224;BME280;21367;51.930;8.112;2023-09-08T09:39:08;101169.56;;;25.51;75.63
35224;BME280;21367;51.930;8.112;2023-09-08T09:44:12;101173.44;;;25.91;72.92
35224;BME280;21367;51.930;8.112;2023-09-08T09:49:19;101162.34;;;26.29;70.12
35224;BME280;21367;51.930;8.112;2023-09-08T09:54:23;101172.06;;;26.25;72.88
35224;BME280;21367;51.930;8.112;2023-09-08T09:59:27;101161.72;;;26.69;74.54
35224;BME280;21367;51.930;8.112;2023-09-08T10:04:34;101165.53;;;27.02;67.92
35224;BME280;21367;51.930;8.112;2023-09-08T10:09:38;101153.47;;;26.87;68.77
35224;BME280;21367;51.930;8.112;2023-09-08T10:14:42;101150.09;;;26.79;66.03
35224;BME280;21367;51.930;8.112;2023-09-08T10:19:50;101148.97;;;27.39;65.08
35224;BME280;21367;51.930;8.112;2023-09-08T10:24:55;101153.88;;;27.14;63.20
35224;BME280;21367;51.930;8.112;2023-09-08T10:30:01;101135.72;;;27.84;66.92
35224;BME280;21367;51.930;8.112;2023-09-08T10:35:09;101150.00;;;28.14;64.05
35224;BME280;21367;51.930;8.112;2023-09-08T10:40:23;101144.94;;;28.05;60.59
35224;BME280;21367;51.930;8.112;2023-09-08T10:45:28;101140.31;;;28.14;65.08
35224;BME280;21367;51.930;8.112;2023-09-08T10:50:38;101133.47;;;28.43;62.75
35224;BME280;21367;51.930;8.112;2023-09-08T10:55:44;101144.75;;;28.84;59.93
35224;BME280;21367;51.930;8.112;2023-09-08T11:00:52;101146.09;;;28.66;60.19
35224;BME280;21367;51.930;8.112;2023-09-08T11:06:03;101138.50;;;28.87;57.06
35224;BME280;21367;51.930;8.112;2023-09-08T11:11:07;101137.16;;;29.36;58.29
35224;BME280;21367;51.930;8.112;2023-09-08T11:16:11;101142.13;;;29.78;56.12
35224;BME280;21367;51.930;8.112;2023-09-08T11:21:17;101136.44;;;29.60;55.95
35224;BME280;21367;51.930;8.112;2023-09-08T11:26:21;101130.16;;;29.92;54.25
35224;BME280;21367;51.930;8.112;2023-09-08T11:31:25;101126.41;;;30.00;52.75
35224;BME280;21367;51.930;8.112;2023-09-08T11:36:31;101128.31;;;30.49;54.69
35224;BME280;21367;51.930;8.112;2023-09-08T11:41:35;101121.34;;;29.92;55.18
35224;BME280;21367;51.930;8.112;2023-09-08T11:46:38;101115.41;;;30.65;54.26
35224;BME280;21367;51.930;8.112;2023-09-08T11:51:46;101114.25;;;31.22;50.58
35224;BME280;21367;51.930;8.112;2023-09-08T11:56:50;101106.22;;;31.93;51.33
35224;BME280;21367;51.930;8.112;2023-09-08T12:01:55;101092.72;;;32.82;47.16
35224;BME280;21367;51.930;8.112;2023-09-08T12:07:02;101096.25;;;32.20;48.97
35224;BME280;21367;51.930;8.112;2023-09-08T12:12:11;101093.72;;;32.37;52.25
35224;BME280;21367;51.930;8.112;2023-09-08T12:17:15;101091.59;;;30.88;52.21
35224;BME280;21367;51.930;8.112;2023-09-08T12:22:21;101086.63;;;31.95;49.23
35224;BME280;21367;51.930;8.112;2023-09-08T12:27:25;101092.16;;;31.67;48.52
35224;BME280;21367;51.930;8.112;2023-09-08T12:32:31;101094.25;;;32.47;51.16
35224;BME280;21367;51.930;8.112;2023-09-08T12:37:38;101078.25;;;32.26;48.09
35224;BME280;21367;51.930;8.112;2023-09-08T12:42:42;101082.38;;;34.26;44.93
35224;BME280;21367;51.930;8.112;2023-09-08T12:47:45;101078.28;;;34.19;44.61
35224;BME280;21367;51.930;8.112;2023-09-08T12:52:52;101065.88;;;33.81;46.37
35224;BME280;21367;51.930;8.112;2023-09-08T12:57:55;101069.22;;;33.50;46.71
35224;BME280;21367;51.930;8.112;2023-09-08T13:02:59;101060.25;;;34.92;45.22
35224;BME280;21367;51.930;8.112;2023-09-08T13:08:05;101049.06;;;35.01;42.73
35224;BME280;21367;51.930;8.112;2023-09-08T13:13:09;101057.72;;;35.69;41.67
35224;BME280;21367;51.930;8.112;2023-09-08T13:18:12;101048.16;;;35.34;41.10
35224;BME280;21367;51.930;8.112;2023-09-08T13:23:18;101046.84;;;34.76;43.44
35224;BME280;21367;51.930;8.112;2023-09-08T13:28:22;101042.31;;;36.49;41.42
35224;BME280;21367;51.930;8.112;2023-09-08T13:33:26;101035.44;;;36.88;39.87
35224;BME280;21367;51.930;8.112;2023-09-08T13:38:32;101040.41;;;34.80;44.69
35224;BME280;21367;51.930;8.112;2023-09-08T13:43:36;101027.06;;;36.21;42.25
35224;BME280;21367;51.930;8.112;2023-09-08T13:48:40;101031.72;;;34.42;43.02
35224;BME280;21367;51.930;8.112;2023-09-08T13:53:46;101021.56;;;35.46;43.16
35224;BME280;21367;51.930;8.112;2023-09-08T13:58:49;101021.31;;;35.04;44.24
35224;BME280;21367;51.930;8.112;2023-09-08T14:03:53;101030.63;;;35.28;43.69
35224;BME280;21367;51.930;8.112;2023-09-08T14:08:59;101028.34;;;34.89;43.79
35224;BME280;21367;51.930;8.112;2023-09-08T14:14:03;101018.94;;;35.92;43.80
35224;BME280;21367;51.930;8.112;2023-09-08T14:19:07;101021.75;;;35.12;43.69
35224;BME280;21367;51.930;8.112;2023-09-08T14:24:13;101036.16;;;35.09;44.58
35224;BME280;21367;51.930;8.112;2023-09-08T14:29:17;101019.53;;;35.67;43.96
35224;BME280;21367;51.930;8.112;2023-09-08T14:34:20;101016.91;;;37.41;42.00
35224;BME280;21367;51.930;8.112;2023-09-08T14:39:27;101006.59;;;35.12;44.14
35224;BME280;21367;51.930;8.112;2023-09-08T14:44:30;101007.81;;;35.38;44.44
35224;BME280;21367;51.930;8.112;2023-09-08T14:49:34;101008.41;;;36.20;42.52
35224;BME280;21367;51.930;8.112;2023-09-08T14:54:40;101001.81;;;35.65;42.59
35224;BME280;21367;51.930;8.112;2023-09-08T14:59:44;101000.72;;;35.37;42.48
35224;BME280;21367;51.930;8.112;2023-09-08T15:04:48;101000.66;;;35.55;42.77
35224;BME280;21367;51.930;8.112;2023-09-08T15:09:54;100997.59;;;35.77;43.88
35224;BME280;21367;51.930;8.112;2023-09-08T15:14:58;100990.13;;;35.82;43.38
35224;BME280;21367;51.930;8.112;2023-09-08T15:20:03;100998.56;;;38.02;40.87
35224;BME280;21367;51.930;8.112;2023-09-08T15:25:10;100993.09;;;38.54;41.06
35224;BME280;21367;51.930;8.112;2023-09-08T15:30:14;100992.22;;;38.03;40.25
35224;BME280;21367;51.930;8.112;2023-09-08T15:35:18;100979.28;;;36.87;41.84
35224;BME280;21367;51.930;8.112;2023-09-08T15:40:24;100985.81;;;36.54;40.76
35224;BME280;21367;51.930;8.112;2023-09-08T15:45:28;100977.31;;;37.59;39.82
35224;BME280;21367;51.930;8.112;2023-09-08T15:50:32;100970.72;;;37.50;40.25
35224;BME280;21367;51.930;8.112;2023-09-08T15:55:38;100972.41;;;37.78;39.77
35224;BME280;21367;51.930;8.112;2023-09-08T16:00:42;100975.28;;;38.02;39.69
35224;BME280;21367;51.930;8.112;2023-09-08T16:05:45;100970.22;;;38.23;39.85
35224;BME280;21367;51.930;8.112;2023-09-08T16:10:52;100971.41;;;39.44;38.50
35224;BME280;21367;51.930;8.112;2023-09-08T16:15:55;100967.97;;;39.77;38.95
35224;BME280;21367;51.930;8.112;2023-09-08T16:20:59;100966.88;;;38.32;40.34
35224;BME280;21367;51.930;8.112;2023-09-08T16:26:05;100967.38;;;37.73;42.30
35224;BME280;21367;51.930;8.112;2023-09-08T16:31:09;100960.91;;;36.37;44.88
35224;BME280;21367;51.930;8.112;2023-09-08T16:36:13;100959.31;;;36.64;44.76
35224;BME280;21367;51.930;8.112;2023-09-08T16:41:20;100963.25;;;35.69;45.84
35224;BME280;21367;51.930;8.112;2023-09-08T16:46:23;100971.53;;;33.11;51.29
35224;BME280;21367;51.930;8.112;2023-09-08T16:51:27;100964.63;;;32.49;51.79
35224;BME280;21367;51.930;8.112;2023-09-08T16:56:34;100967.31;;;30.51;56.44
35224;BME280;21367;51.930;8.112;2023-09-08T17:01:37;100964.59;;;30.76;56.47
35224;BME280;21367;51.930;8.112;2023-09-08T17:06:41;100968.91;;;30.55;58.55
35224;BME280;21367;51.930;8.112;2023-09-08T17:11:48;100974.28;;;29.77;60.17
35224;BME280;21367;51.930;8.112;2023-09-08T17:16:52;100967.44;;;29.43;62.94
35224;BME280;21367;51.930;8.112;2023-09-08T17:21:55;100960.66;;;29.63;63.30
35224;BME280;21367;51.930;8.112;2023-09-08T17:27:03;100968.88;;;28.96;64.56
35224;BME280;21367;51.930;8.112;2023-09-08T17:32:07;100968.28;;;29.16;65.13
35224;BME280;21367;51.930;8.112;2023-09-08T17:37:11;100968.09;;;28.61;66.58
35224;BME280;21367;51.930;8.112;2023-09-08T17:42:18;100970.59;;;28.02;68.49
35224;BME280;21367;51.930;8.112;2023-09-08T17:47:21;100967.56;;;27.83;68.75
35224;BME280;21367;51.930;8.112;2023-09-08T17:52:25;100987.13;;;27.37;71.96
35224;BME280;21367;51.930;8.112;2023-09-08T17:57:31;100986.53;;;27.24;71.96
35224;BME280;21367;51.930;8.112;2023-09-08T18:02:35;100984.13;;;27.12;73.33
35224;BME280;21367;51.930;8.112;2023-09-08T18:07:39;100986.88;;;26.65;75.03
35224;BME280;21367;51.930;8.112;2023-09-08T18:12:47;100976.69;;;26.89;73.73
35224;BME280;21367;51.930;8.112;2023-09-08T18:17:51;100989.63;;;27.01;73.26
35224;BME280;21367;51.930;8.112;2023-09-08T18:22:55;100987.66;;;26.70;74.72
35224;BME280;21367;51.930;8.112;2023-09-08T18:28:01;100998.69;;;26.43;75.09
35224;BME280;21367;51.930;8.112;2023-09-08T18:33:05;101001.94;;;26.11;76.77
35224;BME280;21367;51.930;8.112;2023-09-08T18:38:08;101000.41;;;25.96;77.46
35224;BME280;21367;51.930;8.112;2023-09-08T18:43:15;101003.50;;;25.65;78.33
35224;BME280;21367;51.930;8.112;2023-09-08T18:48:19;101002.13;;;25.39;79.02
35224;BME280;21367;51.930;8.112;2023-09-08T18:53:22;100993.50;;;25.28;80.44
35224;BME280;21367;51.930;8.112;2023-09-08T18:58:29;101002.59;;;25.04;80.68
35224;BME280;21367;51.930;8.112;2023-09-08T19:03:33;101002.69;;;24.98;80.72
35224;BME280;21367;51.930;8.112;2023-09-08T19:08:37;101002.06;;;24.75;82.03
35224;BME280;21367;51.930;8.112;2023-09-08T19:13:44;101007.38;;;24.72;81.84
35224;BME280;21367;51.930;8.112;2023-09-08T19:18:48;101006.72;;;24.50;83.10
35224;BME280;21367;51.930;8.112;2023-09-08T19:23:51;101000.63;;;24.48;83.12
35224;BME280;21367;51.930;8.112;2023-09-08T19:29:01;101006.88;;;24.31;84.06
35224;BME280;21367;51.930;8.112;2023-09-08T19:34:05;100994.78;;;24.15;85.52
35224;BME280;21367;51.930;8.112;2023-09-08T19:39:09;101000.22;;;23.93;86.89
35224;BME280;21367;51.930;8.112;2023-09-08T19:44:15;100994.28;;;23.73;88.23
35224;BME280;21367;51.930;8.112;2023-09-08T19:49:19;100997.78;;;23.67;88.46
35224;BME280;21367;51.930;8.112;2023-09-08T19:54:22;100995.19;;;23.60;88.25
35224;BME280;21367;51.930;8.112;2023-09-08T19:59:29;100996.25;;;23.32;90.09
35224;BME280;21367;51.930;8.112;2023-09-08T20:04:32;101000.59;;;23.37;89.75
35224;BME280;21367;51.930;8.112;2023-09-08T20:09:36;100997.22;;;23.19;90.69
35224;BME280;21367;51.930;8.112;2023-09-08T20:14:42;101001.66;;;23.06;92.29
35224;BME280;21367;51.930;8.112;2023-09-08T20:19:47;100992.94;;;22.92;92.65
35224;BME280;21367;51.930;8.112;2023-09-08T20:24:50;100984.22;;;22.82;94.23
35224;BME280;21367;51.930;8.112;2023-09-08T20:29:57;100993.03;;;22.58;95.74
35224;BME280;21367;51.930;8.112;2023-09-08T20:35:01;100995.66;;;22.61;95.38
35224;BME280;21367;51.930;8.112;2023-09-08T20:40:06;100996.56;;;22.45;96.17
35224;BME280;21367;51.930;8.112;2023-09-08T20:45:12;101005.31;;;22.39;96.56
35224;BME280;21367;51.930;8.112;2023-09-08T20:50:16;101006.19;;;22.03;98.21
35224;BME280;21367;51.930;8.112;2023-09-08T20:55:20;101005.34;;;22.29;98.34
35224;BME280;21367;51.930;8.112;2023-09-08T21:00:27;101014.03;;;22.05;99.77
35224;BME280;21367;51.930;8.112;2023-09-08T21:05:33;101018.38;;;21.60;100.00
35224;BME280;21367;51.930;8.112;2023-09-08T21:10:36;101007.94;;;21.75;100.00
35224;BME280;21367;51.930;8.112;2023-09-08T21:15:45;101016.59;;;21.59;100.00
35224;BME280;21367;51.930;8.112;2023-09-08T21:20:49;101014.88;;;21.55;100.00
35224;BME280;21367;51.930;8.112;2023-09-08T21:25:52;101012.22;;;21.42;100.00
35224;BME280;21367;51.930;8.112;2023-09-08T21:31:05;101007.84;;;21.35;100.00
35224;BME280;21367;51.930;8.112;2023-09-08T21:36:10;101008.72;;;21.34;100.00
35224;BME280;21367;51.930;8.112;2023-09-08T21:41:16;101007.78;;;21.15;100.00
35224;BME280;21367;51.930;8.112;2023-09-08T21:46:22;101005.09;;;21.01;100.00
35224;BME280;21367;51.930;8.112;2023-09-08T21:51:26;101005.06;;;20.95;100.00
35224;BME280;21367;51.930;8.112;2023-09-08T21:56:29;101006.75;;;20.86;100.00
35224;BME280;21367;51.930;8.112;2023-09-08T22:01:36;101010.22;;;20.83;100.00
35224;BME280;21367;51.930;8.112;2023-09-08T22:06:39;101011.00;;;20.59;100.00
35224;BME280;21367;51.930;8.112;2023-09-08T22:11:43;101006.66;;;20.64;100.00
35224;BME280;21367;51.930;8.112;2023-09-08T22:16:50;101017.97;;;20.60;100.00
35224;BME280;21367;51.930;8.112;2023-09-08T22:21:53;101013.56;;;20.54;100.00
35224;BME280;21367;51.930;8.112;2023-09-08T22:26:57;101014.38;;;20.50;100.00
35224;BME280;21367;51.930;8.112;2023-09-08T22:32:04;101012.63;;;20.48;100.00
35224;BME280;21367;51.930;8.112;2023-09-08T22:37:07;101010.78;;;20.31;100.00
35224;BME280;21367;51.930;8.112;2023-09-08T22:42:11;101010.75;;;20.30;100.00
35224;BME280;21367;51.930;8.112;2023-09-08T22:47:17;101006.34;;;20.24;100.00
35224;BME280;21367;51.930;8.112;2023-09-08T22:52:21;101015.88;;;20.18;100.00
35224;BME280;21367;51.930;8.112;2023-09-08T22:57:25;101018.34;;;19.98;100.00
35224;BME280;21367;51.930;8.112;2023-09-08T23:02:31;101009.56;;;19.88;100.00
35224;BME280;21367;51.930;8.112;2023-09-08T23:07:35;101010.53;;;20.02;100.00
35224;BME280;21367;51.930;8.112;2023-09-08T23:12:38;101002.59;;;19.84;100.00
35224;BME280;21367;51.930;8.112;2023-09-08T23:17:44;101011.19;;;19.77;100.00
35224;BME280;21367;51.930;8.112;2023-09-08T23:22:48;101018.97;;;19.69;100.00
35224;BME280;21367;51.930;8.112;2023-09-08T23:27:51;101014.63;;;19.68;100.00
35224;BME280;21367;51.930;8.112;2023-09-08T23:32:58;101013.38;;;18.70;100.00
35224;BME280;21367;51.930;8.112;2023-09-08T23:38:03;101011.28;;;19.08;100.00
35224;BME280;21367;51.930;8.112;2023-09-08T23:43:06;101008.88;;;19.22;100.00
35224;BME280;21367;51.930;8.112;2023-09-08T23:48:12;101008.03;;;19.26;100.00
35224;BME280;21367;51.930;8.112;2023-09-08T23:53:16;101001.75;;;19.07;100.00
35224;BME280;21367;51.930;8.112;2023-09-08T23:58:20;101005.94;;;18.94;100.00
